Whittaker, MI

9:03 AM EDT on April 28, 2015 (GMT -0400)
Detroit Metro Wayne County | | Change Station
CLOSE
Current Station
Airport
Location: Detroit Metro,
Elevation: 663 ft
Nearby Weather Stations

Elev 663 ft 42.23 °N, 83.33 °W | Updated 10 minutes ago

Clear
Clear
47 °F
Feels Like 47 °F
N
4
Wind Variable Wind from WNW

Today
High -- | Low -- °F
--% Chance of Precip.
Yesterday
High -- | Low -- °F
Precip. -- in
6:34 AM 8:29 PM
Waxing Gibbous, 73% visible
Pressure 30.17 in
Visibility 10.0 miles
Clouds Scattered Clouds 25000 ft
Dew Point 35 °F
Humidity 63%
Rainfall 0.00 in
Snow Depth Not available.
UV 2 out of 12
Pollen 6.60 out of 12
Air Quality Not available.
Flu Activity Regional
METAR KDTW 281253Z 30003KT 10SM SCT250 08/02 A3016 RMK AO2 SLP215 T00830017

More Conditions Fewer Conditions

Pressure 30.17 in
Visibility 10.0 miles
Clouds Scattered Clouds 25000 ft
Dew Point 35 °F
Humidity 63%
Rainfall 0.00 in
Snow Depth Not available.
UV 2 out of 12
Pollen 6.60 out of 12
Air Quality Not available.
Flu Activity Regional
METAR KDTW 281253Z 30003KT 10SM SCT250 08/02 A3016 RMK AO2 SLP215 T00830017

More Conditions Fewer Conditions

10-Day Weather Forecast

Almanac

Astronomy

Apr. 28, 2015 Rise Set
Actual Time
Civil Twilight
Nautical Twilight
Astronomical Twilight
Moon
Length of Visible Light
Length of Day
Tomorrow will be .
, % of the Moon is Illuminated

Today's Extremes

State Highs State Lows

Community

WunderPhotos

Upload Photos

1,817,621 photos uploaded!

WunderBlogs® & News

Nearby

Air Quality

  Air Quality AQ Index Pollutant
Not available.

Snow Depth

Station Depth Elevation

Earthquake Activity

City Distance Mag. Time & Date
Minimum magnitude displayed is 2.5.

Coastal Water Temperatures

Place Temperature

Stations

Nearby Weather Stations

Station Location Temp. Windchill Dew Point Humidity Wind Precip. Elev Updated Type